createdAt,value
2022-12-05T00:01:44.975Z,6.20
2022-12-05T00:04:47.676Z,6.21
2022-12-05T00:07:50.717Z,5.89
2022-12-05T00:10:53.403Z,5.94
2022-12-05T00:13:59.107Z,6.14
2022-12-05T00:17:01.874Z,6.10
2022-12-05T00:20:05.658Z,5.89
2022-12-05T00:23:08.290Z,6.11
2022-12-05T00:26:11.602Z,5.79
2022-12-05T00:29:15.614Z,6.06
2022-12-05T00:32:18.339Z,6.10
2022-12-05T00:35:21.040Z,5.80
2022-12-05T00:38:23.668Z,6.07
2022-12-05T00:41:28.527Z,5.84
2022-12-05T00:44:33.045Z,5.64
2022-12-05T00:47:36.685Z,5.87
2022-12-05T00:50:39.453Z,5.76
2022-12-05T00:53:43.045Z,5.69
2022-12-05T00:56:46.511Z,5.94
2022-12-05T00:59:50.649Z,6.07
2022-12-05T01:02:53.276Z,5.95
2022-12-05T01:05:55.930Z,5.95
2022-12-05T01:08:59.041Z,5.94
2022-12-05T01:12:01.714Z,6.17
2022-12-05T01:15:06.561Z,6.29
2022-12-05T01:18:09.193Z,6.23
2022-12-05T01:21:11.849Z,6.18
2022-12-05T01:24:15.565Z,5.96
2022-12-05T01:27:18.173Z,6.25
2022-12-05T01:30:22.337Z,5.96
2022-12-05T01:33:25.170Z,5.81
2022-12-05T01:36:29.152Z,5.69
2022-12-05T01:39:31.789Z,6.17
2022-12-05T01:42:34.535Z,6.07
2022-12-05T01:45:41.551Z,6.01
2022-12-05T01:48:44.514Z,5.98
2022-12-05T01:51:51.089Z,6.23
2022-12-05T01:54:57.469Z,6.11
2022-12-05T01:58:01.752Z,6.20
2022-12-05T02:01:05.967Z,6.41
2022-12-05T02:04:10.072Z,5.89
2022-12-05T02:07:12.800Z,6.18
2022-12-05T02:10:16.249Z,6.24
2022-12-05T02:13:35.457Z,6.40
2022-12-05T02:16:48.674Z,6.42
2022-12-05T02:20:05.668Z,6.43
2022-12-05T02:23:34.640Z,6.43
2022-12-05T02:26:54.188Z,6.55
2022-12-05T02:30:10.563Z,6.25
2022-12-05T02:33:22.106Z,6.15
2022-12-05T02:36:33.878Z,6.32
2022-12-05T02:39:46.347Z,6.46
2022-12-05T02:42:54.317Z,6.52
2022-12-05T02:46:01.813Z,6.50
2022-12-05T02:49:09.429Z,6.54
2022-12-05T02:52:16.196Z,6.28
2022-12-05T02:55:20.950Z,6.29
2022-12-05T02:58:27.863Z,5.83
2022-12-05T03:01:33.509Z,6.29
2022-12-05T03:04:36.786Z,6.31
2022-12-05T03:07:42.280Z,6.07
2022-12-05T03:10:48.474Z,6.29
2022-12-05T03:13:54.885Z,6.19
2022-12-05T03:17:03.146Z,6.43
2022-12-05T03:20:10.222Z,6.45
2022-12-05T03:23:16.587Z,6.39
2022-12-05T03:26:33.130Z,6.52
2022-12-05T03:29:40.033Z,6.45
2022-12-05T03:32:50.528Z,6.53
2022-12-05T03:36:03.045Z,6.54
2022-12-05T03:39:12.462Z,6.54
2022-12-05T03:42:18.480Z,6.56
2022-12-05T03:45:28.901Z,6.55
2022-12-05T03:48:39.468Z,6.56
2022-12-05T03:51:47.033Z,6.56
2022-12-05T03:54:54.528Z,6.45
2022-12-05T03:58:02.045Z,6.43
2022-12-05T04:01:07.968Z,6.42
2022-12-05T04:04:18.197Z,6.34
2022-12-05T04:07:22.672Z,6.22
2022-12-05T04:10:29.588Z,6.51
2022-12-05T04:13:35.836Z,6.57
2022-12-05T04:17:02.182Z,6.59
2022-12-05T04:20:28.946Z,6.58
2022-12-05T04:23:31.980Z,6.55
2022-12-05T04:26:35.291Z,6.54
2022-12-05T04:29:44.352Z,6.56
2022-12-05T04:32:51.366Z,6.52
2022-12-05T04:35:59.069Z,6.51
2022-12-05T04:39:05.507Z,6.58
2022-12-05T04:42:11.638Z,6.45
2022-12-05T04:45:18.776Z,6.53
2022-12-05T04:48:26.279Z,6.37
2022-12-05T04:51:35.235Z,6.52
2022-12-05T04:54:42.599Z,6.52
2022-12-05T04:57:54.085Z,6.55
2022-12-05T05:01:03.534Z,6.56
2022-12-05T05:04:13.025Z,6.29
2022-12-05T05:07:17.014Z,6.46
2022-12-05T05:10:27.905Z,6.35
2022-12-05T05:13:30.554Z,6.41
2022-12-05T05:16:36.022Z,6.44
2022-12-05T05:19:38.670Z,6.28
2022-12-05T05:22:42.648Z,6.32
2022-12-05T05:25:45.356Z,6.40
2022-12-05T05:28:49.165Z,6.39
2022-12-05T05:31:51.812Z,6.25
2022-12-05T05:34:54.437Z,6.34
2022-12-05T05:37:58.656Z,6.13
2022-12-05T05:41:01.309Z,6.20
2022-12-05T05:44:05.355Z,6.33
2022-12-05T05:47:08.171Z,5.87
2022-12-05T05:50:16.324Z,5.83
2022-12-05T05:53:23.590Z,5.94
2022-12-05T05:56:26.933Z,5.93
2022-12-05T05:59:30.099Z,6.14
2022-12-05T06:02:34.532Z,6.21
2022-12-05T06:05:37.313Z,6.14
2022-12-05T06:08:43.428Z,6.24
2022-12-05T06:11:46.040Z,6.07
2022-12-05T06:14:48.871Z,6.00
2022-12-05T06:17:51.544Z,6.09
2022-12-05T06:20:55.006Z,6.03
2022-12-05T06:23:58.984Z,6.12
2022-12-05T06:27:01.626Z,5.82
2022-12-05T06:30:04.969Z,6.12
2022-12-05T06:33:07.597Z,6.11
2022-12-05T06:36:13.021Z,6.20
2022-12-05T06:39:16.993Z,5.69
2022-12-05T06:42:19.611Z,5.86
2022-12-05T06:45:22.338Z,5.56
2022-12-05T06:48:25.021Z,5.86
2022-12-05T06:51:27.627Z,5.80
2022-12-05T06:54:31.670Z,5.55
2022-12-05T06:57:34.288Z,5.88
2022-12-05T07:00:54.658Z,5.98
2022-12-05T07:03:57.346Z,5.90
2022-12-05T07:07:01.984Z,5.91
2022-12-05T07:10:07.693Z,5.91
2022-12-05T07:13:14.442Z,5.25
2022-12-05T07:16:18.462Z,5.34
2022-12-05T07:19:21.126Z,5.76
2022-12-05T07:22:25.001Z,5.43
2022-12-05T07:25:28.965Z,5.63
2022-12-05T07:28:31.627Z,5.34
2022-12-05T07:31:36.524Z,5.52
2022-12-05T07:34:39.739Z,5.75
2022-12-05T07:37:42.460Z,5.79
2022-12-05T07:40:46.458Z,5.72
2022-12-05T07:43:49.208Z,5.75
2022-12-05T07:46:51.860Z,5.65
2022-12-05T07:49:54.463Z,5.72
2022-12-05T07:52:57.090Z,5.41
2022-12-05T07:56:01.951Z,5.58
2022-12-05T07:59:04.632Z,5.59
2022-12-05T08:02:07.423Z,5.62
2022-12-05T08:05:10.425Z,5.68
2022-12-05T08:08:13.272Z,5.53
2022-12-05T08:11:19.332Z,5.65
2022-12-05T08:14:22.040Z,5.45
2022-12-05T08:17:24.661Z,5.55
2022-12-05T08:20:27.334Z,5.20
2022-12-05T08:23:31.171Z,5.47
2022-12-05T08:26:37.305Z,5.56
2022-12-05T08:29:39.930Z,5.65
2022-12-05T08:32:42.587Z,5.66
2022-12-05T08:35:45.298Z,5.61
2022-12-05T08:38:48.314Z,5.63
2022-12-05T08:41:52.288Z,5.69
2022-12-05T08:44:54.973Z,5.49
2022-12-05T08:47:57.774Z,5.56
2022-12-05T08:51:05.247Z,5.61
2022-12-05T08:54:07.986Z,5.64
2022-12-05T08:57:11.940Z,5.66
2022-12-05T09:00:15.798Z,5.56
2022-12-05T09:03:18.409Z,5.55
2022-12-05T09:06:23.263Z,5.64
2022-12-05T09:09:25.900Z,5.65
2022-12-05T09:12:29.902Z,5.67
2022-12-05T09:15:32.620Z,5.65
2022-12-05T09:18:35.495Z,5.58
2022-12-05T09:21:38.106Z,5.59
2022-12-05T09:24:40.697Z,5.65
2022-12-05T09:27:44.715Z,5.51
2022-12-05T09:30:57.122Z,5.62
2022-12-05T09:33:59.778Z,5.51
2022-12-05T09:37:23.269Z,5.61
2022-12-05T09:40:25.313Z,5.64
2022-12-05T09:43:39.172Z,5.62
2022-12-05T09:46:53.209Z,5.45
2022-12-05T09:50:01.340Z,5.54
2022-12-05T09:53:10.685Z,5.45
2022-12-05T09:56:22.477Z,5.42
2022-12-05T09:59:26.516Z,5.40
2022-12-05T10:02:42.724Z,5.44
2022-12-05T10:05:53.314Z,5.17
2022-12-05T10:09:21.782Z,5.29
2022-12-05T10:12:43.030Z,4.95
2022-12-05T10:15:55.681Z,5.15
2022-12-05T10:19:04.030Z,5.26
2022-12-05T10:22:20.207Z,5.00
2022-12-05T10:25:26.694Z,5.13
2022-12-05T10:28:34.766Z,4.97
2022-12-05T10:31:40.429Z,5.04
2022-12-05T10:34:45.337Z,4.90
2022-12-05T10:37:50.767Z,4.93
2022-12-05T10:40:58.103Z,4.99
2022-12-05T10:44:01.001Z,5.01
2022-12-05T10:47:05.010Z,5.14
2022-12-05T10:50:21.511Z,5.21
2022-12-05T10:53:27.925Z,5.07
2022-12-05T10:56:42.374Z,4.83
2022-12-05T10:59:47.676Z,4.95
2022-12-05T11:02:53.092Z,5.02
2022-12-05T11:05:58.402Z,5.11
2022-12-05T11:09:07.157Z,5.16
2022-12-05T11:12:19.364Z,4.98
2022-12-05T11:15:25.369Z,4.82
2022-12-05T11:18:32.672Z,5.04
2022-12-05T11:21:43.297Z,5.12
2022-12-05T11:24:45.926Z,5.08
2022-12-05T11:27:48.568Z,5.15
2022-12-05T11:30:59.424Z,5.11
2022-12-05T11:34:11.286Z,5.23
2022-12-05T11:37:18.482Z,5.15
2022-12-05T11:40:32.707Z,5.13
2022-12-05T11:43:53.743Z,4.89
2022-12-05T11:47:11.444Z,4.92
2022-12-05T11:50:25.827Z,4.98
2022-12-05T11:54:01.389Z,5.19
2022-12-05T11:57:12.208Z,5.23
2022-12-05T12:00:22.185Z,5.32
2022-12-05T12:03:54.750Z,5.33
2022-12-05T12:07:11.270Z,5.42
2022-12-05T12:10:25.728Z,5.44
2022-12-05T12:13:46.260Z,5.43
2022-12-05T12:16:58.934Z,5.42
2022-12-05T12:20:29.223Z,5.41
2022-12-05T12:23:44.581Z,5.51
2022-12-05T12:26:55.979Z,5.11
2022-12-05T12:30:06.455Z,5.34
2022-12-05T12:33:16.303Z,5.39
2022-12-05T12:36:25.874Z,5.46
2022-12-05T12:39:41.764Z,5.51
2022-12-05T12:42:56.531Z,5.42
2022-12-05T12:46:13.635Z,5.39
2022-12-05T12:49:35.815Z,5.42
2022-12-05T12:53:00.700Z,4.98
2022-12-05T12:56:16.003Z,5.14
2022-12-05T12:59:34.017Z,5.09
2022-12-05T13:02:43.301Z,5.13
2022-12-05T13:05:50.006Z,5.14
2022-12-05T13:08:57.433Z,5.20
2022-12-05T13:12:10.608Z,5.16
2022-12-05T13:15:16.225Z,5.04
2022-12-05T13:18:21.885Z,5.11
2022-12-05T13:21:25.801Z,5.11
2022-12-05T13:24:29.705Z,5.12
2022-12-05T13:27:33.763Z,5.18
2022-12-05T13:30:56.687Z,5.17
2022-12-05T13:33:59.309Z,5.14
2022-12-05T13:37:29.155Z,5.15
2022-12-05T13:40:52.169Z,5.13
2022-12-05T13:44:05.980Z,5.09
2022-12-05T13:47:25.767Z,5.12
2022-12-05T13:50:37.002Z,5.12
2022-12-05T13:53:43.232Z,5.09
2022-12-05T13:56:52.328Z,5.09
2022-12-05T14:00:06.121Z,5.08
2022-12-05T14:03:19.560Z,5.13
2022-12-05T14:06:58.568Z,4.98
2022-12-05T14:10:01.357Z,5.05
2022-12-05T14:13:25.261Z,5.04
2022-12-05T14:16:50.733Z,5.01
2022-12-05T14:20:07.260Z,5.00
2022-12-05T14:23:24.878Z,4.86
2022-12-05T14:26:49.337Z,4.88
2022-12-05T14:30:03.620Z,4.89
2022-12-05T14:33:15.436Z,4.88
2022-12-05T14:36:29.087Z,4.98
2022-12-05T14:39:39.887Z,4.90
2022-12-05T14:42:45.022Z,4.89
2022-12-05T14:46:00.068Z,4.80
2022-12-05T14:49:52.751Z,4.76
2022-12-05T14:53:20.199Z,4.81
2022-12-05T14:56:26.212Z,4.82
2022-12-05T14:59:32.302Z,4.78
2022-12-05T15:02:40.440Z,4.72
2022-12-05T15:05:45.146Z,4.68
2022-12-05T15:08:51.118Z,4.70
2022-12-05T15:11:54.248Z,4.65
2022-12-05T15:15:14.473Z,4.62
2022-12-05T15:18:23.446Z,4.65
2022-12-05T15:21:33.587Z,4.52
2022-12-05T15:24:38.811Z,4.65
2022-12-05T15:27:41.547Z,4.66
2022-12-05T15:30:44.589Z,4.66
2022-12-05T15:33:52.965Z,4.66
2022-12-05T15:37:03.762Z,4.49
2022-12-05T15:40:14.176Z,4.46
2022-12-05T15:43:30.823Z,4.41
2022-12-05T15:46:33.443Z,4.44
2022-12-05T15:49:36.186Z,4.33
2022-12-05T15:52:46.488Z,4.39
2022-12-05T15:55:52.702Z,4.37
2022-12-05T15:58:59.790Z,4.38
2022-12-05T16:02:12.111Z,4.30
2022-12-05T16:05:23.311Z,4.20
2022-12-05T16:08:31.178Z,4.29
2022-12-05T16:11:33.884Z,4.23
2022-12-05T16:18:05.940Z,4.24
2022-12-05T16:21:36.006Z,4.14
2022-12-05T16:24:43.422Z,4.14
2022-12-05T16:27:58.206Z,3.98
2022-12-05T16:31:03.202Z,3.91
2022-12-05T16:34:08.089Z,3.96
2022-12-05T16:37:19.724Z,4.05
2022-12-05T16:40:24.041Z,4.06
2022-12-05T16:43:44.332Z,4.08
2022-12-05T16:46:47.524Z,4.00
2022-12-05T16:49:50.237Z,4.01
2022-12-05T16:53:02.046Z,4.03
2022-12-05T16:56:07.953Z,4.04
2022-12-05T16:59:19.836Z,3.96
2022-12-05T17:02:22.515Z,3.98
2022-12-05T17:05:25.592Z,3.89
2022-12-05T17:08:28.279Z,3.86
2022-12-05T17:11:34.002Z,3.72
2022-12-05T17:14:36.698Z,3.74
2022-12-05T17:17:39.493Z,3.81
2022-12-05T17:20:44.274Z,3.75
2022-12-05T17:23:49.227Z,3.78
2022-12-05T17:26:53.222Z,3.84
2022-12-05T17:29:56.187Z,3.83
2022-12-05T17:32:59.034Z,3.80
2022-12-05T17:36:01.818Z,3.78
2022-12-05T17:39:04.528Z,3.76
2022-12-05T17:42:09.373Z,3.72
2022-12-05T17:45:14.659Z,3.67
2022-12-05T17:48:17.326Z,3.69
2022-12-05T17:51:20.485Z,3.66
2022-12-05T17:54:23.105Z,3.66
2022-12-05T17:57:27.080Z,3.56
2022-12-05T18:00:29.769Z,3.50
2022-12-05T18:03:32.527Z,3.51
2022-12-05T18:06:35.225Z,3.55
2022-12-05T18:09:37.835Z,3.52
2022-12-05T18:12:42.104Z,3.55
2022-12-05T18:15:47.375Z,3.55
2022-12-05T18:18:50.013Z,3.58
2022-12-05T18:21:52.626Z,3.54
2022-12-05T18:24:57.315Z,3.43
2022-12-05T18:28:01.776Z,3.41
2022-12-05T18:31:07.083Z,3.38
2022-12-05T18:34:10.085Z,3.45
2022-12-05T18:37:13.166Z,3.38
2022-12-05T18:40:15.953Z,3.35
2022-12-05T18:43:19.919Z,3.41
2022-12-05T18:46:22.959Z,3.35
2022-12-05T18:49:25.840Z,3.38
2022-12-05T18:52:28.456Z,3.43
2022-12-05T18:55:57.990Z,3.44
2022-12-05T18:58:57.284Z,3.33
2022-12-05T19:02:00.446Z,3.27
2022-12-05T19:05:03.149Z,3.32
2022-12-05T19:08:06.174Z,3.30
2022-12-05T19:11:08.893Z,3.36
2022-12-05T19:14:13.250Z,3.36
2022-12-05T19:17:16.103Z,3.39
2022-12-05T19:20:18.839Z,3.31
2022-12-05T19:23:21.530Z,3.32
2022-12-05T19:26:25.081Z,3.37
2022-12-05T19:29:29.037Z,3.34
2022-12-05T19:32:34.302Z,3.37
2022-12-05T19:35:41.053Z,3.41
2022-12-05T19:38:45.908Z,3.39
2022-12-05T19:41:49.374Z,3.39
2022-12-05T19:44:53.373Z,3.41
2022-12-05T19:47:56.014Z,3.40
2022-12-05T19:50:59.849Z,3.37
2022-12-05T19:54:05.092Z,3.33
2022-12-05T19:57:07.864Z,3.34
2022-12-05T20:00:12.938Z,3.41
2022-12-05T20:03:15.674Z,3.40
2022-12-05T20:06:19.511Z,3.38
2022-12-05T20:09:23.289Z,3.36
2022-12-05T20:12:25.966Z,3.29
2022-12-05T20:15:30.299Z,3.29
2022-12-05T20:18:33.964Z,3.31
2022-12-05T20:21:39.379Z,3.33
2022-12-05T20:24:42.069Z,3.36
2022-12-05T20:27:45.624Z,3.19
2022-12-05T20:30:49.885Z,3.31
2022-12-05T20:33:53.802Z,3.37
2022-12-05T20:36:56.404Z,3.32
2022-12-05T20:39:59.362Z,3.37
2022-12-05T20:43:02.262Z,3.24
2022-12-05T20:46:08.896Z,3.20
2022-12-05T20:49:12.960Z,3.19
2022-12-05T20:52:15.620Z,3.34
2022-12-05T20:55:18.605Z,3.35
2022-12-05T20:58:21.642Z,3.28
2022-12-05T21:01:27.247Z,3.35
2022-12-05T21:04:29.881Z,3.36
2022-12-05T21:07:32.502Z,3.29
2022-12-05T21:10:35.399Z,3.25
2022-12-05T21:13:38.221Z,3.24
2022-12-05T21:16:42.225Z,3.26
2022-12-05T21:19:45.451Z,3.26
2022-12-05T21:22:48.064Z,3.23
2022-12-05T21:25:50.696Z,3.18
2022-12-05T21:28:54.118Z,3.22
2022-12-05T21:31:59.491Z,3.24
2022-12-05T21:35:03.316Z,3.21
2022-12-05T21:38:05.919Z,3.28
2022-12-05T21:41:08.750Z,3.26
2022-12-05T21:44:11.390Z,3.26
2022-12-05T21:47:15.589Z,3.28
2022-12-05T21:50:18.439Z,3.25
2022-12-05T21:53:21.966Z,3.24
2022-12-05T21:56:25.409Z,3.25
2022-12-05T21:59:32.185Z,3.29
2022-12-05T22:02:36.195Z,3.26
2022-12-05T22:05:38.818Z,3.25
2022-12-05T22:08:41.659Z,3.33
2022-12-05T22:11:44.406Z,3.30
2022-12-05T22:14:47.046Z,3.23
2022-12-05T22:17:51.053Z,3.26
2022-12-05T22:20:56.741Z,3.32
2022-12-05T22:23:59.371Z,3.23
2022-12-05T22:27:01.966Z,3.28
2022-12-05T22:30:05.324Z,3.28
2022-12-05T22:33:09.381Z,3.30
2022-12-05T22:36:13.945Z,3.25
2022-12-05T22:39:16.561Z,3.26
2022-12-05T22:42:19.165Z,3.27
2022-12-05T22:45:21.805Z,3.29
2022-12-05T22:48:27.361Z,3.34
2022-12-05T22:51:29.948Z,3.30
2022-12-05T22:54:32.674Z,3.29
2022-12-05T22:57:35.265Z,3.27
2022-12-05T23:00:38.461Z,3.36
2022-12-05T23:03:43.622Z,3.33
2022-12-05T23:06:46.360Z,3.33
2022-12-05T23:09:49.103Z,3.33
2022-12-05T23:12:51.831Z,3.37
2022-12-05T23:15:57.836Z,3.36
2022-12-05T23:19:04.493Z,3.23
2022-12-05T23:22:07.127Z,3.28
2022-12-05T23:25:09.950Z,3.19
2022-12-05T23:28:12.596Z,2.98
2022-12-05T23:31:15.631Z,3.19
2022-12-05T23:34:19.909Z,2.90
2022-12-05T23:37:22.524Z,3.03
2022-12-05T23:40:25.307Z,3.10
2022-12-05T23:43:28.398Z,3.24
2022-12-05T23:46:31.203Z,3.26
2022-12-05T23:49:35.179Z,3.29
2022-12-05T23:52:38.388Z,3.33
2022-12-05T23:55:41.004Z,3.37
2022-12-05T23:58:44.363Z,3.34
